sensor_id;sensor_type;location;lat;lon;timestamp;P1;durP1;ratioP1;P2;durP2;ratioP2
12650;SDS011;6390;49.400;8.670;2023-07-13T03:31:33;2.38;;;1.38;;
12650;SDS011;6390;49.400;8.670;2023-07-13T03:34:01;1.98;;;1.20;;
12650;SDS011;6390;49.400;8.670;2023-07-13T03:36:28;1.58;;;1.30;;
12650;SDS011;6390;49.400;8.670;2023-07-13T03:38:56;1.40;;;1.20;;
12650;SDS011;6390;49.400;8.670;2023-07-13T03:41:24;1.38;;;1.27;;
12650;SDS011;6390;49.400;8.670;2023-07-13T03:43:51;1.55;;;1.38;;
12650;SDS011;6390;49.400;8.670;2023-07-13T03:46:17;1.58;;;1.05;;
12650;SDS011;6390;49.400;8.670;2023-07-13T03:48:44;1.58;;;1.27;;
12650;SDS011;6390;49.400;8.670;2023-07-13T03:51:12;2.20;;;1.20;;
12650;SDS011;6390;49.400;8.670;2023-07-13T03:53:40;1.30;;;1.13;;
12650;SDS011;6390;49.400;8.670;2023-07-13T03:56:08;2.15;;;1.17;;
12650;SDS011;6390;49.400;8.670;2023-07-13T03:58:35;2.63;;;1.13;;
12650;SDS011;6390;49.400;8.670;2023-07-13T04:01:04;1.58;;;1.27;;
12650;SDS011;6390;49.400;8.670;2023-07-13T04:03:33;2.72;;;1.40;;
12650;SDS011;6390;49.400;8.670;2023-07-13T04:06:00;3.53;;;3.00;;
12650;SDS011;6390;49.400;8.670;2023-07-13T04:08:28;2.85;;;1.80;;
12650;SDS011;6390;49.400;8.670;2023-07-13T04:10:56;2.10;;;1.70;;
12650;SDS011;6390;49.400;8.670;2023-07-13T04:13:23;1.90;;;1.45;;
12650;SDS011;6390;49.400;8.670;2023-07-13T04:15:49;1.45;;;1.20;;
12650;SDS011;6390;49.400;8.670;2023-07-13T04:18:17;2.42;;;1.30;;
12650;SDS011;6390;49.400;8.670;2023-07-13T04:20:44;1.60;;;1.45;;
12650;SDS011;6390;49.400;8.670;2023-07-13T04:23:11;1.98;;;1.40;;
12650;SDS011;6390;49.400;8.670;2023-07-13T04:25:38;1.40;;;1.30;;
12650;SDS011;6390;49.400;8.670;2023-07-13T04:28:04;2.10;;;1.33;;
12650;SDS011;6390;49.400;8.670;2023-07-13T04:30:31;1.80;;;1.42;;
12650;SDS011;6390;49.400;8.670;2023-07-13T04:32:57;1.50;;;1.38;;
12650;SDS011;6390;49.400;8.670;2023-07-13T04:35:23;1.30;;;1.20;;
12650;SDS011;6390;49.400;8.670;2023-07-13T04:37:49;4.00;;;1.40;;
12650;SDS011;6390;49.400;8.670;2023-07-13T04:40:16;1.40;;;1.30;;
12650;SDS011;6390;49.400;8.670;2023-07-13T04:42:43;1.80;;;1.35;;
12650;SDS011;6390;49.400;8.670;2023-07-13T04:45:11;1.48;;;1.30;;
12650;SDS011;6390;49.400;8.670;2023-07-13T04:47:39;1.30;;;1.20;;
12650;SDS011;6390;49.400;8.670;2023-07-13T04:50:06;1.50;;;1.35;;
12650;SDS011;6390;49.400;8.670;2023-07-13T04:52:33;2.15;;;1.50;;
12650;SDS011;6390;49.400;8.670;2023-07-13T04:55:00;1.40;;;1.30;;
12650;SDS011;6390;49.400;8.670;2023-07-13T04:57:26;1.65;;;1.50;;
12650;SDS011;6390;49.400;8.670;2023-07-13T04:59:53;1.40;;;1.30;;
12650;SDS011;6390;49.400;8.670;2023-07-13T05:02:22;1.48;;;1.23;;
12650;SDS011;6390;49.400;8.670;2023-07-13T05:04:48;2.72;;;1.40;;
12650;SDS011;6390;49.400;8.670;2023-07-13T05:07:15;2.40;;;1.42;;
12650;SDS011;6390;49.400;8.670;2023-07-13T05:09:41;1.65;;;1.38;;
12650;SDS011;6390;49.400;8.670;2023-07-13T05:12:08;1.50;;;1.40;;
12650;SDS011;6390;49.400;8.670;2023-07-13T05:14:34;1.55;;;1.30;;
12650;SDS011;6390;49.400;8.670;2023-07-13T05:17:01;1.40;;;1.30;;
12650;SDS011;6390;49.400;8.670;2023-07-13T05:19:27;1.85;;;1.20;;
12650;SDS011;6390;49.400;8.670;2023-07-13T05:21:54;2.83;;;1.50;;
12650;SDS011;6390;49.400;8.670;2023-07-13T05:24:20;1.50;;;1.40;;
12650;SDS011;6390;49.400;8.670;2023-07-13T05:26:46;2.15;;;1.10;;
12650;SDS011;6390;49.400;8.670;2023-07-13T05:29:13;2.33;;;1.40;;
12650;SDS011;6390;49.400;8.670;2023-07-13T05:31:39;1.60;;;1.50;;
12650;SDS011;6390;49.400;8.670;2023-07-13T05:34:05;1.80;;;1.33;;
12650;SDS011;6390;49.400;8.670;2023-07-13T05:36:31;2.45;;;1.40;;
12650;SDS011;6390;49.400;8.670;2023-07-13T05:38:57;2.35;;;1.45;;
12650;SDS011;6390;49.400;8.670;2023-07-13T05:41:23;1.65;;;1.35;;
12650;SDS011;6390;49.400;8.670;2023-07-13T05:43:49;3.90;;;1.48;;
12650;SDS011;6390;49.400;8.670;2023-07-13T05:46:15;2.85;;;1.10;;
12650;SDS011;6390;49.400;8.670;2023-07-13T05:48:41;2.25;;;1.27;;
12650;SDS011;6390;49.400;8.670;2023-07-13T05:51:07;1.25;;;1.13;;
12650;SDS011;6390;49.400;8.670;2023-07-13T05:53:34;3.63;;;1.20;;
12650;SDS011;6390;49.400;8.670;2023-07-13T05:56:01;3.03;;;1.40;;
12650;SDS011;6390;49.400;8.670;2023-07-13T05:58:27;2.05;;;1.75;;
12650;SDS011;6390;49.400;8.670;2023-07-13T06:01:03;2.08;;;1.20;;
12650;SDS011;6390;49.400;8.670;2023-07-13T06:03:31;1.73;;;1.50;;
12650;SDS011;6390;49.400;8.670;2023-07-13T06:05:58;1.55;;;1.13;;
12650;SDS011;6390;49.400;8.670;2023-07-13T06:08:27;2.13;;;1.17;;
12650;SDS011;6390;49.400;8.670;2023-07-13T06:10:54;1.52;;;1.15;;
12650;SDS011;6390;49.400;8.670;2023-07-13T06:13:23;1.40;;;1.10;;
12650;SDS011;6390;49.400;8.670;2023-07-13T06:15:49;1.30;;;1.20;;
12650;SDS011;6390;49.400;8.670;2023-07-13T06:18:16;0.93;;;0.93;;
12650;SDS011;6390;49.400;8.670;2023-07-13T06:20:42;1.67;;;1.23;;
12650;SDS011;6390;49.400;8.670;2023-07-13T06:23:08;1.20;;;1.00;;
12650;SDS011;6390;49.400;8.670;2023-07-13T06:25:34;1.30;;;1.20;;
12650;SDS011;6390;49.400;8.670;2023-07-13T06:28:00;2.85;;;1.20;;
12650;SDS011;6390;49.400;8.670;2023-07-13T06:30:26;1.20;;;1.10;;
12650;SDS011;6390;49.400;8.670;2023-07-13T06:32:52;1.13;;;1.02;;
12650;SDS011;6390;49.400;8.670;2023-07-13T06:35:18;1.95;;;1.02;;
12650;SDS011;6390;49.400;8.670;2023-07-13T06:37:44;1.50;;;1.20;;
12650;SDS011;6390;49.400;8.670;2023-07-13T06:40:12;1.77;;;1.10;;
12650;SDS011;6390;49.400;8.670;2023-07-13T06:42:38;2.53;;;1.20;;
12650;SDS011;6390;49.400;8.670;2023-07-13T06:45:04;2.97;;;1.20;;
12650;SDS011;6390;49.400;8.670;2023-07-13T06:47:31;1.38;;;1.10;;
12650;SDS011;6390;49.400;8.670;2023-07-13T06:49:57;0.98;;;0.90;;
12650;SDS011;6390;49.400;8.670;2023-07-13T06:52:23;1.30;;;0.93;;
12650;SDS011;6390;49.400;8.670;2023-07-13T06:54:49;1.30;;;1.05;;
12650;SDS011;6390;49.400;8.670;2023-07-13T06:57:16;1.63;;;1.10;;
12650;SDS011;6390;49.400;8.670;2023-07-13T06:59:42;1.52;;;1.30;;
12650;SDS011;6390;49.400;8.670;2023-07-13T07:02:08;1.52;;;1.30;;
12650;SDS011;6390;49.400;8.670;2023-07-13T07:04:35;0.80;;;0.80;;
12650;SDS011;6390;49.400;8.670;2023-07-13T07:07:02;1.27;;;1.05;;
12650;SDS011;6390;49.400;8.670;2023-07-13T07:09:28;3.33;;;1.20;;
12650;SDS011;6390;49.400;8.670;2023-07-13T07:11:56;1.20;;;1.10;;
12650;SDS011;6390;49.400;8.670;2023-07-13T07:14:22;2.35;;;1.02;;
12650;SDS011;6390;49.400;8.670;2023-07-13T07:16:49;1.30;;;1.00;;
12650;SDS011;6390;49.400;8.670;2023-07-13T07:19:15;0.85;;;0.82;;
12650;SDS011;6390;49.400;8.670;2023-07-13T07:21:42;1.25;;;0.80;;
12650;SDS011;6390;49.400;8.670;2023-07-13T07:24:08;1.55;;;1.02;;
12650;SDS011;6390;49.400;8.670;2023-07-13T07:26:34;1.48;;;0.90;;
12650;SDS011;6390;49.400;8.670;2023-07-13T07:29:00;1.85;;;0.98;;
12650;SDS011;6390;49.400;8.670;2023-07-13T07:31:26;1.48;;;0.90;;
12650;SDS011;6390;49.400;8.670;2023-07-13T07:33:52;1.20;;;1.00;;
12650;SDS011;6390;49.400;8.670;2023-07-13T07:36:18;1.20;;;0.77;;
12650;SDS011;6390;49.400;8.670;2023-07-13T07:38:44;1.23;;;1.05;;
12650;SDS011;6390;49.400;8.670;2023-07-13T07:41:11;1.58;;;0.90;;
12650;SDS011;6390;49.400;8.670;2023-07-13T07:43:37;1.15;;;0.98;;
12650;SDS011;6390;49.400;8.670;2023-07-13T07:46:03;1.10;;;1.00;;
12650;SDS011;6390;49.400;8.670;2023-07-13T07:48:29;1.30;;;1.20;;
12650;SDS011;6390;49.400;8.670;2023-07-13T07:50:56;2.05;;;1.17;;
12650;SDS011;6390;49.400;8.670;2023-07-13T07:53:22;1.85;;;1.20;;
12650;SDS011;6390;49.400;8.670;2023-07-13T07:55:48;1.88;;;1.10;;
12650;SDS011;6390;49.400;8.670;2023-07-13T07:58:15;1.38;;;1.15;;
12650;SDS011;6390;49.400;8.670;2023-07-13T08:00:41;1.58;;;1.02;;
12650;SDS011;6390;49.400;8.670;2023-07-13T08:03:07;1.92;;;1.02;;
12650;SDS011;6390;49.400;8.670;2023-07-13T08:05:35;1.20;;;0.90;;
12650;SDS011;6390;49.400;8.670;2023-07-13T08:08:02;2.42;;;0.90;;
12650;SDS011;6390;49.400;8.670;2023-07-13T08:10:28;1.60;;;1.00;;
12650;SDS011;6390;49.400;8.670;2023-07-13T08:12:54;2.03;;;1.08;;
12650;SDS011;6390;49.400;8.670;2023-07-13T08:15:21;3.53;;;1.17;;
12650;SDS011;6390;49.400;8.670;2023-07-13T08:17:47;8.00;;;1.70;;
12650;SDS011;6390;49.400;8.670;2023-07-13T08:20:14;7.03;;;1.45;;
12650;SDS011;6390;49.400;8.670;2023-07-13T08:22:41;1.88;;;1.10;;
12650;SDS011;6390;49.400;8.670;2023-07-13T08:25:07;2.25;;;1.08;;
12650;SDS011;6390;49.400;8.670;2023-07-13T08:27:33;1.42;;;1.08;;
12650;SDS011;6390;49.400;8.670;2023-07-13T08:29:59;1.80;;;1.10;;
12650;SDS011;6390;49.400;8.670;2023-07-13T08:32:25;1.58;;;1.00;;
12650;SDS011;6390;49.400;8.670;2023-07-13T08:34:51;2.67;;;1.23;;
12650;SDS011;6390;49.400;8.670;2023-07-13T08:37:18;2.00;;;0.80;;
12650;SDS011;6390;49.400;8.670;2023-07-13T08:39:44;4.95;;;1.10;;
12650;SDS011;6390;49.400;8.670;2023-07-13T08:42:12;1.33;;;0.90;;
12650;SDS011;6390;49.400;8.670;2023-07-13T08:47:56;1.30;;;1.10;;
12650;SDS011;6390;49.400;8.670;2023-07-13T08:50:30;1.15;;;0.90;;
12650;SDS011;6390;49.400;8.670;2023-07-13T08:53:00;3.55;;;0.90;;
12650;SDS011;6390;49.400;8.670;2023-07-13T08:55:29;2.65;;;0.90;;
12650;SDS011;6390;49.400;8.670;2023-07-13T08:58:03;1.00;;;0.88;;
12650;SDS011;6390;49.400;8.670;2023-07-13T09:00:42;1.55;;;0.70;;
12650;SDS011;6390;49.400;8.670;2023-07-13T09:03:23;2.45;;;0.95;;
12650;SDS011;6390;49.400;8.670;2023-07-13T09:05:57;1.40;;;0.90;;
12650;SDS011;6390;49.400;8.670;2023-07-13T09:14:26;1.40;;;1.10;;
12650;SDS011;6390;49.400;8.670;2023-07-13T09:19:59;1.20;;;0.75;;
12650;SDS011;6390;49.400;8.670;2023-07-13T09:22:31;1.50;;;0.98;;
12650;SDS011;6390;49.400;8.670;2023-07-13T09:25:02;3.88;;;1.02;;
12650;SDS011;6390;49.400;8.670;2023-07-13T09:27:46;0.85;;;0.80;;
12650;SDS011;6390;49.400;8.670;2023-07-13T09:32:39;2.70;;;0.88;;
12650;SDS011;6390;49.400;8.670;2023-07-13T09:35:10;2.20;;;0.85;;
12650;SDS011;6390;49.400;8.670;2023-07-13T09:37:38;0.70;;;0.70;;
12650;SDS011;6390;49.400;8.670;2023-07-13T09:40:08;2.35;;;1.02;;
12650;SDS011;6390;49.400;8.670;2023-07-13T09:42:51;0.82;;;0.70;;
12650;SDS011;6390;49.400;8.670;2023-07-13T09:45:29;7.57;;;1.40;;
12650;SDS011;6390;49.400;8.670;2023-07-13T09:48:05;9.13;;;1.50;;
12650;SDS011;6390;49.400;8.670;2023-07-13T09:50:38;1.50;;;1.00;;
12650;SDS011;6390;49.400;8.670;2023-07-13T09:53:09;4.72;;;1.00;;
12650;SDS011;6390;49.400;8.670;2023-07-13T09:55:40;0.50;;;0.50;;
12650;SDS011;6390;49.400;8.670;2023-07-13T09:58:12;1.40;;;0.95;;
12650;SDS011;6390;49.400;8.670;2023-07-13T10:00:57;3.58;;;1.00;;
12650;SDS011;6390;49.400;8.670;2023-07-13T10:03:26;1.15;;;0.85;;
12650;SDS011;6390;49.400;8.670;2023-07-13T10:06:01;1.23;;;0.75;;
12650;SDS011;6390;49.400;8.670;2023-07-13T10:08:38;7.90;;;1.15;;
12650;SDS011;6390;49.400;8.670;2023-07-13T10:11:12;0.80;;;0.73;;
12650;SDS011;6390;49.400;8.670;2023-07-13T10:14:01;1.23;;;1.02;;
12650;SDS011;6390;49.400;8.670;2023-07-13T10:16:36;1.83;;;0.77;;
12650;SDS011;6390;49.400;8.670;2023-07-13T10:19:46;1.33;;;0.85;;
12650;SDS011;6390;49.400;8.670;2023-07-13T10:22:07;0.85;;;0.80;;
12650;SDS011;6390;49.400;8.670;2023-07-13T10:24:39;0.80;;;0.80;;
12650;SDS011;6390;49.400;8.670;2023-07-13T10:27:13;5.57;;;1.00;;
12650;SDS011;6390;49.400;8.670;2023-07-13T10:29:55;2.22;;;0.88;;
12650;SDS011;6390;49.400;8.670;2023-07-13T10:32:40;1.92;;;0.85;;
12650;SDS011;6390;49.400;8.670;2023-07-13T10:35:09;1.50;;;0.90;;
12650;SDS011;6390;49.400;8.670;2023-07-13T10:37:41;0.90;;;0.80;;
12650;SDS011;6390;49.400;8.670;2023-07-13T10:40:27;0.88;;;0.88;;
12650;SDS011;6390;49.400;8.670;2023-07-13T10:43:04;0.90;;;0.82;;
12650;SDS011;6390;49.400;8.670;2023-07-13T10:45:42;7.20;;;1.48;;
12650;SDS011;6390;49.400;8.670;2023-07-13T10:48:12;2.00;;;1.10;;
12650;SDS011;6390;49.400;8.670;2023-07-13T10:50:40;4.55;;;1.30;;
12650;SDS011;6390;49.400;8.670;2023-07-13T10:56:50;1.00;;;0.65;;
12650;SDS011;6390;49.400;8.670;2023-07-13T11:01:53;1.20;;;0.77;;
12650;SDS011;6390;49.400;8.670;2023-07-13T11:04:23;0.85;;;0.80;;
12650;SDS011;6390;49.400;8.670;2023-07-13T11:06:53;9.75;;;1.55;;
12650;SDS011;6390;49.400;8.670;2023-07-13T11:09:31;2.78;;;1.15;;
12650;SDS011;6390;49.400;8.670;2023-07-13T11:12:00;3.40;;;0.90;;
12650;SDS011;6390;49.400;8.670;2023-07-13T11:14:30;5.50;;;0.95;;
12650;SDS011;6390;49.400;8.670;2023-07-13T11:17:24;0.70;;;0.65;;
12650;SDS011;6390;49.400;8.670;2023-07-13T11:20:19;5.15;;;1.25;;
12650;SDS011;6390;49.400;8.670;2023-07-13T11:22:53;4.50;;;1.20;;
12650;SDS011;6390;49.400;8.670;2023-07-13T11:25:33;3.47;;;0.90;;
12650;SDS011;6390;49.400;8.670;2023-07-13T11:28:07;1.40;;;0.75;;
12650;SDS011;6390;49.400;8.670;2023-07-13T11:33:17;2.17;;;0.90;;
12650;SDS011;6390;49.400;8.670;2023-07-13T11:38:37;1.33;;;0.88;;
12650;SDS011;6390;49.400;8.670;2023-07-13T11:41:15;5.00;;;1.08;;
12650;SDS011;6390;49.400;8.670;2023-07-13T11:43:50;1.00;;;0.75;;
12650;SDS011;6390;49.400;8.670;2023-07-13T11:46:26;2.58;;;0.88;;
12650;SDS011;6390;49.400;8.670;2023-07-13T11:48:53;2.00;;;0.85;;
12650;SDS011;6390;49.400;8.670;2023-07-13T11:51:30;15.90;;;1.85;;
12650;SDS011;6390;49.400;8.670;2023-07-13T11:54:00;1.20;;;0.85;;
12650;SDS011;6390;49.400;8.670;2023-07-13T11:56:30;0.95;;;0.80;;
12650;SDS011;6390;49.400;8.670;2023-07-13T11:59:02;15.52;;;2.03;;
12650;SDS011;6390;49.400;8.670;2023-07-13T12:01:32;1.20;;;1.10;;
12650;SDS011;6390;49.400;8.670;2023-07-13T12:03:59;1.15;;;1.00;;
12650;SDS011;6390;49.400;8.670;2023-07-13T12:06:34;0.88;;;0.80;;
12650;SDS011;6390;49.400;8.670;2023-07-13T12:09:14;2.00;;;0.73;;
12650;SDS011;6390;49.400;8.670;2023-07-13T12:11:45;0.90;;;0.80;;
12650;SDS011;6390;49.400;8.670;2023-07-13T12:14:13;2.20;;;0.90;;
12650;SDS011;6390;49.400;8.670;2023-07-13T12:16:40;4.45;;;1.23;;
12650;SDS011;6390;49.400;8.670;2023-07-13T12:19:28;2.00;;;0.80;;
12650;SDS011;6390;49.400;8.670;2023-07-13T12:21:55;0.95;;;0.85;;
12650;SDS011;6390;49.400;8.670;2023-07-13T12:24:23;12.50;;;1.67;;
12650;SDS011;6390;49.400;8.670;2023-07-13T12:26:51;1.33;;;0.80;;
12650;SDS011;6390;49.400;8.670;2023-07-13T12:29:29;0.73;;;0.65;;
12650;SDS011;6390;49.400;8.670;2023-07-13T12:31:56;4.47;;;0.90;;
12650;SDS011;6390;49.400;8.670;2023-07-13T12:34:23;0.85;;;0.80;;
12650;SDS011;6390;49.400;8.670;2023-07-13T12:39:20;1.95;;;0.95;;
12650;SDS011;6390;49.400;8.670;2023-07-13T12:42:13;2.30;;;1.10;;
12650;SDS011;6390;49.400;8.670;2023-07-13T12:45:03;1.20;;;1.00;;
12650;SDS011;6390;49.400;8.670;2023-07-13T12:47:52;1.05;;;0.63;;
12650;SDS011;6390;49.400;8.670;2023-07-13T12:50:22;0.80;;;0.75;;
12650;SDS011;6390;49.400;8.670;2023-07-13T12:53:03;0.75;;;0.60;;
12650;SDS011;6390;49.400;8.670;2023-07-13T12:55:32;1.73;;;0.77;;
12650;SDS011;6390;49.400;8.670;2023-07-13T12:58:09;1.20;;;0.98;;
12650;SDS011;6390;49.400;8.670;2023-07-13T13:00:59;1.13;;;0.85;;
12650;SDS011;6390;49.400;8.670;2023-07-13T13:03:30;1.10;;;1.00;;
12650;SDS011;6390;49.400;8.670;2023-07-13T13:06:02;2.35;;;0.95;;
12650;SDS011;6390;49.400;8.670;2023-07-13T13:08:41;0.73;;;0.68;;
12650;SDS011;6390;49.400;8.670;2023-07-13T13:11:08;1.25;;;0.95;;
12650;SDS011;6390;49.400;8.670;2023-07-13T13:13:35;2.15;;;1.23;;
12650;SDS011;6390;49.400;8.670;2023-07-13T13:16:02;0.77;;;0.73;;
12650;SDS011;6390;49.400;8.670;2023-07-13T13:18:38;5.68;;;1.10;;
12650;SDS011;6390;49.400;8.670;2023-07-13T13:21:04;15.68;;;2.10;;
12650;SDS011;6390;49.400;8.670;2023-07-13T13:23:30;1.48;;;0.90;;
12650;SDS011;6390;49.400;8.670;2023-07-13T13:25:56;4.88;;;1.08;;
12650;SDS011;6390;49.400;8.670;2023-07-13T13:28:23;1.20;;;0.85;;
12650;SDS011;6390;49.400;8.670;2023-07-13T13:30:50;1.63;;;0.70;;
12650;SDS011;6390;49.400;8.670;2023-07-13T13:33:18;1.40;;;0.98;;
12650;SDS011;6390;49.400;8.670;2023-07-13T13:35:46;1.92;;;0.95;;
12650;SDS011;6390;49.400;8.670;2023-07-13T13:38:17;5.47;;;1.10;;
12650;SDS011;6390;49.400;8.670;2023-07-13T13:40:52;0.93;;;0.82;;
12650;SDS011;6390;49.400;8.670;2023-07-13T13:43:21;2.00;;;0.70;;
12650;SDS011;6390;49.400;8.670;2023-07-13T13:45:56;1.00;;;0.73;;
12650;SDS011;6390;49.400;8.670;2023-07-13T13:48:32;1.23;;;0.82;;
12650;SDS011;6390;49.400;8.670;2023-07-13T13:51:00;1.70;;;0.90;;
12650;SDS011;6390;49.400;8.670;2023-07-13T13:53:31;1.70;;;1.00;;
12650;SDS011;6390;49.400;8.670;2023-07-13T13:55:57;0.95;;;0.85;;
12650;SDS011;6390;49.400;8.670;2023-07-13T13:58:24;2.05;;;1.00;;
12650;SDS011;6390;49.400;8.670;2023-07-13T14:00:50;1.08;;;0.98;;
12650;SDS011;6390;49.400;8.670;2023-07-13T14:03:17;1.05;;;0.90;;
12650;SDS011;6390;49.400;8.670;2023-07-13T14:05:45;1.65;;;1.00;;
12650;SDS011;6390;49.400;8.670;2023-07-13T14:08:12;1.75;;;0.68;;
12650;SDS011;6390;49.400;8.670;2023-07-13T14:10:40;2.35;;;0.90;;
12650;SDS011;6390;49.400;8.670;2023-07-13T14:13:07;0.80;;;0.60;;
12650;SDS011;6390;49.400;8.670;2023-07-13T14:15:43;1.55;;;0.88;;
12650;SDS011;6390;49.400;8.670;2023-07-13T14:18:10;1.02;;;0.80;;
12650;SDS011;6390;49.400;8.670;2023-07-13T14:20:37;1.70;;;0.90;;
12650;SDS011;6390;49.400;8.670;2023-07-13T14:23:03;1.52;;;0.90;;
12650;SDS011;6390;49.400;8.670;2023-07-13T14:25:30;1.33;;;1.00;;
12650;SDS011;6390;49.400;8.670;2023-07-13T14:27:59;1.35;;;1.10;;
12650;SDS011;6390;49.400;8.670;2023-07-13T14:30:34;0.93;;;0.77;;
12650;SDS011;6390;49.400;8.670;2023-07-13T14:33:00;2.53;;;0.90;;
12650;SDS011;6390;49.400;8.670;2023-07-13T14:35:26;1.25;;;1.00;;
12650;SDS011;6390;49.400;8.670;2023-07-13T14:37:52;0.70;;;0.63;;
12650;SDS011;6390;49.400;8.670;2023-07-13T14:40:21;1.10;;;0.90;;
12650;SDS011;6390;49.400;8.670;2023-07-13T14:42:53;1.00;;;0.80;;
12650;SDS011;6390;49.400;8.670;2023-07-13T14:45:19;1.48;;;0.98;;
12650;SDS011;6390;49.400;8.670;2023-07-13T14:47:46;1.20;;;0.90;;
12650;SDS011;6390;49.400;8.670;2023-07-13T14:50:16;0.85;;;0.85;;
12650;SDS011;6390;49.400;8.670;2023-07-13T14:52:55;1.02;;;0.90;;
12650;SDS011;6390;49.400;8.670;2023-07-13T14:55:21;2.10;;;1.10;;
12650;SDS011;6390;49.400;8.670;2023-07-13T14:57:51;1.00;;;0.90;;
12650;SDS011;6390;49.400;8.670;2023-07-13T15:00:18;1.33;;;1.05;;
12650;SDS011;6390;49.400;8.670;2023-07-13T15:02:50;1.30;;;1.10;;
12650;SDS011;6390;49.400;8.670;2023-07-13T15:05:29;0.75;;;0.75;;
12650;SDS011;6390;49.400;8.670;2023-07-13T15:07:57;1.50;;;1.00;;
12650;SDS011;6390;49.400;8.670;2023-07-13T15:10:29;1.00;;;0.90;;
12650;SDS011;6390;49.400;8.670;2023-07-13T15:12:59;0.95;;;0.73;;
12650;SDS011;6390;49.400;8.670;2023-07-13T15:15:47;1.23;;;0.90;;
12650;SDS011;6390;49.400;8.670;2023-07-13T15:18:17;2.25;;;0.90;;
12650;SDS011;6390;49.400;8.670;2023-07-13T15:20:47;1.50;;;0.88;;
12650;SDS011;6390;49.400;8.670;2023-07-13T15:23:15;0.90;;;0.75;;
12650;SDS011;6390;49.400;8.670;2023-07-13T15:25:42;1.10;;;0.52;;
12650;SDS011;6390;49.400;8.670;2023-07-13T15:28:09;2.67;;;1.25;;
12650;SDS011;6390;49.400;8.670;2023-07-13T15:30:44;0.80;;;0.80;;
12650;SDS011;6390;49.400;8.670;2023-07-13T15:33:23;1.30;;;1.00;;
12650;SDS011;6390;49.400;8.670;2023-07-13T15:35:52;3.75;;;0.82;;
12650;SDS011;6390;49.400;8.670;2023-07-13T15:38:21;1.58;;;0.90;;
12650;SDS011;6390;49.400;8.670;2023-07-13T15:40:50;4.15;;;1.20;;
12650;SDS011;6390;49.400;8.670;2023-07-13T15:43:18;2.33;;;1.00;;
12650;SDS011;6390;49.400;8.670;2023-07-13T15:45:45;21.75;;;1.98;;
12650;SDS011;6390;49.400;8.670;2023-07-13T15:48:13;1.98;;;1.00;;
12650;SDS011;6390;49.400;8.670;2023-07-13T15:50:46;2.88;;;1.30;;
12650;SDS011;6390;49.400;8.670;2023-07-13T15:53:23;2.40;;;1.00;;
12650;SDS011;6390;49.400;8.670;2023-07-13T15:55:56;1.23;;;0.93;;
12650;SDS011;6390;49.400;8.670;2023-07-13T15:58:23;4.10;;;3.10;;
12650;SDS011;6390;49.400;8.670;2023-07-13T16:00:50;4.28;;;2.70;;
12650;SDS011;6390;49.400;8.670;2023-07-13T16:03:18;4.82;;;4.35;;
12650;SDS011;6390;49.400;8.670;2023-07-13T16:05:45;11.18;;;10.18;;
12650;SDS011;6390;49.400;8.670;2023-07-13T16:08:34;5.82;;;5.32;;
12650;SDS011;6390;49.400;8.670;2023-07-13T16:10:59;4.72;;;4.32;;
12650;SDS011;6390;49.400;8.670;2023-07-13T16:13:27;5.07;;;3.03;;
12650;SDS011;6390;49.400;8.670;2023-07-13T16:15:54;4.40;;;4.00;;
12650;SDS011;6390;49.400;8.670;2023-07-13T16:18:21;3.78;;;3.28;;
12650;SDS011;6390;49.400;8.670;2023-07-13T16:20:47;2.88;;;2.45;;
12650;SDS011;6390;49.400;8.670;2023-07-13T16:23:15;4.05;;;2.80;;
12650;SDS011;6390;49.400;8.670;2023-07-13T16:25:42;4.70;;;3.97;;
12650;SDS011;6390;49.400;8.670;2023-07-13T16:28:09;3.90;;;3.25;;
12650;SDS011;6390;49.400;8.670;2023-07-13T16:30:37;4.78;;;4.28;;
12650;SDS011;6390;49.400;8.670;2023-07-13T16:33:04;4.18;;;2.30;;
12650;SDS011;6390;49.400;8.670;2023-07-13T16:35:38;1.85;;;1.65;;
12650;SDS011;6390;49.400;8.670;2023-07-13T16:38:17;1.92;;;1.20;;
12650;SDS011;6390;49.400;8.670;2023-07-13T16:40:45;1.30;;;1.20;;
12650;SDS011;6390;49.400;8.670;2023-07-13T16:43:12;1.83;;;1.20;;
12650;SDS011;6390;49.400;8.670;2023-07-13T16:45:45;2.17;;;1.40;;
12650;SDS011;6390;49.400;8.670;2023-07-13T16:48:13;1.45;;;0.85;;
12650;SDS011;6390;49.400;8.670;2023-07-13T16:50:43;0.65;;;0.60;;
12650;SDS011;6390;49.400;8.670;2023-07-13T16:53:18;0.93;;;0.90;;
12650;SDS011;6390;49.400;8.670;2023-07-13T16:55:47;1.52;;;0.85;;
12650;SDS011;6390;49.400;8.670;2023-07-13T16:58:14;0.68;;;0.68;;
12650;SDS011;6390;49.400;8.670;2023-07-13T17:00:40;1.02;;;0.77;;
12650;SDS011;6390;49.400;8.670;2023-07-13T17:03:07;0.80;;;0.80;;
12650;SDS011;6390;49.400;8.670;2023-07-13T17:05:39;1.05;;;0.85;;
12650;SDS011;6390;49.400;8.670;2023-07-13T17:08:20;0.75;;;0.75;;
12650;SDS011;6390;49.400;8.670;2023-07-13T17:10:51;1.00;;;0.70;;
12650;SDS011;6390;49.400;8.670;2023-07-13T17:13:22;1.50;;;0.73;;
12650;SDS011;6390;49.400;8.670;2023-07-13T17:15:51;2.05;;;0.80;;
12650;SDS011;6390;49.400;8.670;2023-07-13T17:18:20;1.23;;;0.80;;
12650;SDS011;6390;49.400;8.670;2023-07-13T17:21:01;2.35;;;1.00;;
12650;SDS011;6390;49.400;8.670;2023-07-13T17:23:31;1.30;;;0.80;;
12650;SDS011;6390;49.400;8.670;2023-07-13T17:26:01;1.17;;;0.88;;
12650;SDS011;6390;49.400;8.670;2023-07-13T17:28:28;2.67;;;0.95;;
12650;SDS011;6390;49.400;8.670;2023-07-13T17:30:56;1.92;;;0.80;;
12650;SDS011;6390;49.400;8.670;2023-07-13T17:36:01;0.90;;;0.88;;
12650;SDS011;6390;49.400;8.670;2023-07-13T17:41:00;4.68;;;1.05;;
12650;SDS011;6390;49.400;8.670;2023-07-13T17:43:29;1.95;;;1.10;;
12650;SDS011;6390;49.400;8.670;2023-07-13T17:45:56;2.28;;;2.08;;
12650;SDS011;6390;49.400;8.670;2023-07-13T17:48:23;2.45;;;2.35;;
12650;SDS011;6390;49.400;8.670;2023-07-13T17:50:50;1.60;;;1.50;;
12650;SDS011;6390;49.400;8.670;2023-07-13T17:53:20;1.17;;;1.08;;
12650;SDS011;6390;49.400;8.670;2023-07-13T17:55:47;1.20;;;0.98;;
12650;SDS011;6390;49.400;8.670;2023-07-13T17:58:14;1.15;;;0.85;;
12650;SDS011;6390;49.400;8.670;2023-07-13T18:00:42;1.20;;;1.00;;
12650;SDS011;6390;49.400;8.670;2023-07-13T18:03:13;1.00;;;0.90;;
12650;SDS011;6390;49.400;8.670;2023-07-13T18:05:43;2.28;;;0.90;;
12650;SDS011;6390;49.400;8.670;2023-07-13T18:08:27;3.17;;;0.63;;
12650;SDS011;6390;49.400;8.670;2023-07-13T18:10:57;1.63;;;0.70;;
12650;SDS011;6390;49.400;8.670;2023-07-13T18:13:25;1.00;;;0.70;;
12650;SDS011;6390;49.400;8.670;2023-07-13T18:15:53;2.45;;;1.00;;
12650;SDS011;6390;49.400;8.670;2023-07-13T18:18:21;1.05;;;0.88;;
12650;SDS011;6390;49.400;8.670;2023-07-13T18:20:48;0.70;;;0.65;;
12650;SDS011;6390;49.400;8.670;2023-07-13T18:23:16;1.63;;;0.90;;
12650;SDS011;6390;49.400;8.670;2023-07-13T18:25:45;0.88;;;0.80;;
12650;SDS011;6390;49.400;8.670;2023-07-13T18:28:16;1.30;;;0.70;;
12650;SDS011;6390;49.400;8.670;2023-07-13T18:30:43;1.52;;;0.90;;
12650;SDS011;6390;49.400;8.670;2023-07-13T18:33:19;0.63;;;0.63;;
12650;SDS011;6390;49.400;8.670;2023-07-13T18:35:51;0.98;;;0.90;;
12650;SDS011;6390;49.400;8.670;2023-07-13T18:38:22;1.13;;;0.70;;
12650;SDS011;6390;49.400;8.670;2023-07-13T18:40:50;0.60;;;0.60;;
12650;SDS011;6390;49.400;8.670;2023-07-13T18:43:16;1.23;;;0.60;;
12650;SDS011;6390;49.400;8.670;2023-07-13T18:45:43;1.52;;;1.05;;
12650;SDS011;6390;49.400;8.670;2023-07-13T18:48:14;1.75;;;1.20;;
12650;SDS011;6390;49.400;8.670;2023-07-13T18:50:47;1.13;;;1.02;;
12650;SDS011;6390;49.400;8.670;2023-07-13T18:53:14;1.20;;;1.08;;
12650;SDS011;6390;49.400;8.670;2023-07-13T18:55:42;0.75;;;0.68;;
12650;SDS011;6390;49.400;8.670;2023-07-13T18:58:11;0.88;;;0.70;;
12650;SDS011;6390;49.400;8.670;2023-07-13T19:00:38;1.15;;;0.82;;
12650;SDS011;6390;49.400;8.670;2023-07-13T19:03:10;1.48;;;0.70;;
12650;SDS011;6390;49.400;8.670;2023-07-13T19:05:40;0.98;;;0.80;;
12650;SDS011;6390;49.400;8.670;2023-07-13T19:08:14;1.70;;;0.80;;
12650;SDS011;6390;49.400;8.670;2023-07-13T19:10:43;0.98;;;0.88;;
12650;SDS011;6390;49.400;8.670;2023-07-13T19:13:11;1.70;;;1.20;;
12650;SDS011;6390;49.400;8.670;2023-07-13T19:15:42;0.77;;;0.77;;
12650;SDS011;6390;49.400;8.670;2023-07-13T19:18:12;1.25;;;0.90;;
12650;SDS011;6390;49.400;8.670;2023-07-13T19:20:44;1.33;;;1.00;;